sensor_id;sensor_type;location;lat;lon;timestamp;P1;durP1;ratioP1;P2;durP2;ratioP2
19024;SDS011;9645;51.448;6.260;2022-09-29T00:00:55;16.73;;;9.20;;
19024;SDS011;9645;51.448;6.260;2022-09-29T00:03:23;14.80;;;8.82;;
19024;SDS011;9645;51.448;6.260;2022-09-29T00:05:51;16.48;;;8.80;;
19024;SDS011;9645;51.448;6.260;2022-09-29T00:08:20;15.88;;;9.48;;
19024;SDS011;9645;51.448;6.260;2022-09-29T00:10:50;23.98;;;9.30;;
19024;SDS011;9645;51.448;6.260;2022-09-29T00:13:17;18.10;;;8.85;;
19024;SDS011;9645;51.448;6.260;2022-09-29T00:15:44;19.75;;;10.63;;
19024;SDS011;9645;51.448;6.260;2022-09-29T00:18:20;18.27;;;9.75;;
19024;SDS011;9645;51.448;6.260;2022-09-29T00:20:54;17.40;;;8.82;;
19024;SDS011;9645;51.448;6.260;2022-09-29T00:23:22;16.10;;;9.23;;
19024;SDS011;9645;51.448;6.260;2022-09-29T00:25:59;18.27;;;9.43;;
19024;SDS011;9645;51.448;6.260;2022-09-29T00:28:28;18.45;;;8.88;;
19024;SDS011;9645;51.448;6.260;2022-09-29T00:30:56;14.65;;;8.45;;
19024;SDS011;9645;51.448;6.260;2022-09-29T00:33:24;16.83;;;9.00;;
19024;SDS011;9645;51.448;6.260;2022-09-29T00:35:57;22.30;;;10.23;;
19024;SDS011;9645;51.448;6.260;2022-09-29T00:38:26;20.05;;;10.10;;
19024;SDS011;9645;51.448;6.260;2022-09-29T00:40:53;21.30;;;10.13;;
19024;SDS011;9645;51.448;6.260;2022-09-29T00:43:22;26.10;;;11.30;;
19024;SDS011;9645;51.448;6.260;2022-09-29T00:45:51;24.92;;;11.70;;
19024;SDS011;9645;51.448;6.260;2022-09-29T00:48:22;27.77;;;12.52;;
19024;SDS011;9645;51.448;6.260;2022-09-29T00:50:56;29.02;;;11.32;;
19024;SDS011;9645;51.448;6.260;2022-09-29T00:53:23;28.55;;;12.65;;
19024;SDS011;9645;51.448;6.260;2022-09-29T00:55:53;19.67;;;10.75;;
19024;SDS011;9645;51.448;6.260;2022-09-29T00:58:27;19.33;;;9.80;;
19024;SDS011;9645;51.448;6.260;2022-09-29T01:00:58;21.08;;;10.90;;
19024;SDS011;9645;51.448;6.260;2022-09-29T01:03:26;20.42;;;10.10;;
19024;SDS011;9645;51.448;6.260;2022-09-29T01:05:56;19.40;;;10.25;;
19024;SDS011;9645;51.448;6.260;2022-09-29T01:08:25;17.88;;;10.30;;
19024;SDS011;9645;51.448;6.260;2022-09-29T01:10:59;24.00;;;10.35;;
19024;SDS011;9645;51.448;6.260;2022-09-29T01:13:30;22.92;;;10.40;;
19024;SDS011;9645;51.448;6.260;2022-09-29T01:15:59;19.40;;;10.75;;
19024;SDS011;9645;51.448;6.260;2022-09-29T01:18:26;25.95;;;11.40;;
19024;SDS011;9645;51.448;6.260;2022-09-29T01:20:55;21.73;;;11.73;;
19024;SDS011;9645;51.448;6.260;2022-09-29T01:32:38;30.35;;;11.90;;
19024;SDS011;9645;51.448;6.260;2022-09-29T01:35:19;24.88;;;11.13;;
19024;SDS011;9645;51.448;6.260;2022-09-29T01:37:54;20.02;;;10.98;;
19024;SDS011;9645;51.448;6.260;2022-09-29T01:40:32;20.85;;;11.40;;
19024;SDS011;9645;51.448;6.260;2022-09-29T01:43:04;21.02;;;11.23;;
19024;SDS011;9645;51.448;6.260;2022-09-29T01:45:35;23.83;;;12.30;;
19024;SDS011;9645;51.448;6.260;2022-09-29T01:48:08;24.52;;;12.68;;
19024;SDS011;9645;51.448;6.260;2022-09-29T01:50:41;26.42;;;11.75;;
19024;SDS011;9645;51.448;6.260;2022-09-29T01:53:11;24.15;;;12.45;;
19024;SDS011;9645;51.448;6.260;2022-09-29T01:55:42;28.60;;;12.63;;
19024;SDS011;9645;51.448;6.260;2022-09-29T01:58:13;31.48;;;13.38;;
19024;SDS011;9645;51.448;6.260;2022-09-29T02:00:44;20.25;;;11.23;;
19024;SDS011;9645;51.448;6.260;2022-09-29T02:03:17;29.13;;;13.40;;
19024;SDS011;9645;51.448;6.260;2022-09-29T02:05:47;23.98;;;12.38;;
19024;SDS011;9645;51.448;6.260;2022-09-29T02:08:18;25.95;;;12.40;;
19024;SDS011;9645;51.448;6.260;2022-09-29T02:10:50;27.63;;;12.00;;
19024;SDS011;9645;51.448;6.260;2022-09-29T02:13:21;28.15;;;13.00;;
19024;SDS011;9645;51.448;6.260;2022-09-29T02:15:50;26.95;;;13.27;;
19024;SDS011;9645;51.448;6.260;2022-09-29T02:18:23;25.05;;;12.30;;
19024;SDS011;9645;51.448;6.260;2022-09-29T02:20:54;28.27;;;13.75;;
19024;SDS011;9645;51.448;6.260;2022-09-29T02:23:21;26.17;;;13.10;;
19024;SDS011;9645;51.448;6.260;2022-09-29T02:25:48;24.20;;;12.70;;
19024;SDS011;9645;51.448;6.260;2022-09-29T02:28:27;26.23;;;13.57;;
19024;SDS011;9645;51.448;6.260;2022-09-29T02:30:54;25.38;;;13.50;;
19024;SDS011;9645;51.448;6.260;2022-09-29T02:33:22;26.05;;;11.95;;
19024;SDS011;9645;51.448;6.260;2022-09-29T02:35:53;26.15;;;12.32;;
19024;SDS011;9645;51.448;6.260;2022-09-29T02:38:29;32.33;;;14.15;;
19024;SDS011;9645;51.448;6.260;2022-09-29T02:41:03;24.15;;;13.38;;
19024;SDS011;9645;51.448;6.260;2022-09-29T02:43:54;24.85;;;11.80;;
19024;SDS011;9645;51.448;6.260;2022-09-29T02:46:43;40.00;;;14.02;;
19024;SDS011;9645;51.448;6.260;2022-09-29T02:49:27;37.97;;;14.82;;
19024;SDS011;9645;51.448;6.260;2022-09-29T02:51:59;30.02;;;13.93;;
19024;SDS011;9645;51.448;6.260;2022-09-29T02:54:43;27.40;;;14.70;;
19024;SDS011;9645;51.448;6.260;2022-09-29T02:57:25;37.85;;;13.75;;
19024;SDS011;9645;51.448;6.260;2022-09-29T03:00:02;31.90;;;14.05;;
19024;SDS011;9645;51.448;6.260;2022-09-29T03:02:33;33.83;;;13.00;;
19024;SDS011;9645;51.448;6.260;2022-09-29T03:05:01;36.83;;;14.35;;
19024;SDS011;9645;51.448;6.260;2022-09-29T03:07:28;24.88;;;13.32;;
19024;SDS011;9645;51.448;6.260;2022-09-29T03:09:55;29.65;;;12.90;;
19024;SDS011;9645;51.448;6.260;2022-09-29T03:12:22;27.38;;;12.55;;
19024;SDS011;9645;51.448;6.260;2022-09-29T03:14:49;26.73;;;12.90;;
19024;SDS011;9645;51.448;6.260;2022-09-29T03:17:18;31.50;;;13.23;;
19024;SDS011;9645;51.448;6.260;2022-09-29T03:19:44;35.55;;;14.10;;
19024;SDS011;9645;51.448;6.260;2022-09-29T03:22:11;28.65;;;12.38;;
19024;SDS011;9645;51.448;6.260;2022-09-29T03:24:38;32.67;;;13.70;;
19024;SDS011;9645;51.448;6.260;2022-09-29T03:27:06;34.13;;;13.32;;
19024;SDS011;9645;51.448;6.260;2022-09-29T03:29:33;30.42;;;14.85;;
19024;SDS011;9645;51.448;6.260;2022-09-29T03:32:00;25.73;;;12.75;;
19024;SDS011;9645;51.448;6.260;2022-09-29T03:34:29;25.17;;;12.10;;
19024;SDS011;9645;51.448;6.260;2022-09-29T03:36:56;26.48;;;13.05;;
19024;SDS011;9645;51.448;6.260;2022-09-29T03:39:23;30.42;;;14.05;;
19024;SDS011;9645;51.448;6.260;2022-09-29T03:41:50;29.48;;;13.93;;
19024;SDS011;9645;51.448;6.260;2022-09-29T03:44:17;26.10;;;12.20;;
19024;SDS011;9645;51.448;6.260;2022-09-29T03:46:44;24.73;;;11.35;;
19024;SDS011;9645;51.448;6.260;2022-09-29T03:49:12;27.48;;;13.10;;
19024;SDS011;9645;51.448;6.260;2022-09-29T03:51:41;26.35;;;13.02;;
19024;SDS011;9645;51.448;6.260;2022-09-29T03:54:08;30.17;;;12.95;;
19024;SDS011;9645;51.448;6.260;2022-09-29T03:56:36;25.73;;;13.02;;
19024;SDS011;9645;51.448;6.260;2022-09-29T03:59:03;29.30;;;14.30;;
19024;SDS011;9645;51.448;6.260;2022-09-29T04:01:32;37.58;;;14.48;;
19024;SDS011;9645;51.448;6.260;2022-09-29T04:03:59;35.47;;;16.45;;
19024;SDS011;9645;51.448;6.260;2022-09-29T04:06:27;29.02;;;12.85;;
19024;SDS011;9645;51.448;6.260;2022-09-29T04:08:55;29.10;;;12.82;;
19024;SDS011;9645;51.448;6.260;2022-09-29T04:11:22;24.17;;;12.80;;
19024;SDS011;9645;51.448;6.260;2022-09-29T04:13:49;30.42;;;13.32;;
19024;SDS011;9645;51.448;6.260;2022-09-29T04:16:16;29.02;;;13.85;;
19024;SDS011;9645;51.448;6.260;2022-09-29T04:18:43;31.27;;;13.60;;
19024;SDS011;9645;51.448;6.260;2022-09-29T04:21:10;31.95;;;13.50;;
19024;SDS011;9645;51.448;6.260;2022-09-29T04:23:37;23.42;;;11.63;;
19024;SDS011;9645;51.448;6.260;2022-09-29T04:26:06;23.75;;;11.63;;
19024;SDS011;9645;51.448;6.260;2022-09-29T04:28:34;26.25;;;12.30;;
19024;SDS011;9645;51.448;6.260;2022-09-29T04:31:01;24.35;;;11.80;;
19024;SDS011;9645;51.448;6.260;2022-09-29T04:33:29;26.30;;;13.10;;
19024;SDS011;9645;51.448;6.260;2022-09-29T04:35:56;23.38;;;12.45;;
19024;SDS011;9645;51.448;6.260;2022-09-29T04:38:24;23.75;;;12.10;;
19024;SDS011;9645;51.448;6.260;2022-09-29T04:40:52;25.67;;;11.50;;
19024;SDS011;9645;51.448;6.260;2022-09-29T04:43:20;23.88;;;11.52;;
19024;SDS011;9645;51.448;6.260;2022-09-29T04:45:47;27.27;;;11.63;;
19024;SDS011;9645;51.448;6.260;2022-09-29T04:48:14;24.95;;;11.75;;
19024;SDS011;9645;51.448;6.260;2022-09-29T04:50:41;25.08;;;11.63;;
19024;SDS011;9645;51.448;6.260;2022-09-29T04:53:09;27.63;;;11.90;;
19024;SDS011;9645;51.448;6.260;2022-09-29T04:55:37;24.25;;;11.48;;
19024;SDS011;9645;51.448;6.260;2022-09-29T04:58:04;26.25;;;11.13;;
19024;SDS011;9645;51.448;6.260;2022-09-29T05:00:33;24.88;;;12.25;;
19024;SDS011;9645;51.448;6.260;2022-09-29T05:02:59;23.63;;;10.90;;
19024;SDS011;9645;51.448;6.260;2022-09-29T05:05:27;24.13;;;11.43;;
19024;SDS011;9645;51.448;6.260;2022-09-29T05:07:54;25.15;;;11.77;;
19024;SDS011;9645;51.448;6.260;2022-09-29T05:10:23;25.70;;;12.82;;
19024;SDS011;9645;51.448;6.260;2022-09-29T05:12:50;29.05;;;12.65;;
19024;SDS011;9645;51.448;6.260;2022-09-29T05:15:17;23.92;;;11.65;;
19024;SDS011;9645;51.448;6.260;2022-09-29T05:17:46;31.65;;;12.60;;
19024;SDS011;9645;51.448;6.260;2022-09-29T05:20:13;26.65;;;11.93;;
19024;SDS011;9645;51.448;6.260;2022-09-29T05:22:40;24.85;;;12.75;;
19024;SDS011;9645;51.448;6.260;2022-09-29T05:25:08;39.15;;;15.98;;
19024;SDS011;9645;51.448;6.260;2022-09-29T05:27:35;30.33;;;13.57;;
19024;SDS011;9645;51.448;6.260;2022-09-29T05:30:03;37.60;;;14.85;;
19024;SDS011;9645;51.448;6.260;2022-09-29T05:32:30;38.65;;;14.82;;
19024;SDS011;9645;51.448;6.260;2022-09-29T05:34:59;37.67;;;15.18;;
19024;SDS011;9645;51.448;6.260;2022-09-29T05:37:27;33.42;;;15.18;;
19024;SDS011;9645;51.448;6.260;2022-09-29T05:39:54;41.83;;;16.55;;
19024;SDS011;9645;51.448;6.260;2022-09-29T05:42:21;34.60;;;15.45;;
19024;SDS011;9645;51.448;6.260;2022-09-29T05:44:49;36.85;;;15.75;;
19024;SDS011;9645;51.448;6.260;2022-09-29T05:47:16;39.85;;;15.75;;
19024;SDS011;9645;51.448;6.260;2022-09-29T05:49:43;36.33;;;16.45;;
19024;SDS011;9645;51.448;6.260;2022-09-29T05:52:12;33.53;;;15.55;;
19024;SDS011;9645;51.448;6.260;2022-09-29T05:54:39;35.38;;;15.93;;
19024;SDS011;9645;51.448;6.260;2022-09-29T05:57:06;32.17;;;14.60;;
19024;SDS011;9645;51.448;6.260;2022-09-29T05:59:37;36.80;;;15.10;;
19024;SDS011;9645;51.448;6.260;2022-09-29T06:02:04;39.25;;;15.10;;
19024;SDS011;9645;51.448;6.260;2022-09-29T06:04:31;34.40;;;14.90;;
19024;SDS011;9645;51.448;6.260;2022-09-29T06:06:59;35.10;;;13.70;;
19024;SDS011;9645;51.448;6.260;2022-09-29T06:09:28;31.67;;;13.80;;
19024;SDS011;9645;51.448;6.260;2022-09-29T06:11:55;32.95;;;14.45;;
19024;SDS011;9645;51.448;6.260;2022-09-29T06:14:23;36.15;;;14.90;;
19024;SDS011;9645;51.448;6.260;2022-09-29T06:16:50;37.67;;;14.90;;
19024;SDS011;9645;51.448;6.260;2022-09-29T06:19:17;38.22;;;16.35;;
19024;SDS011;9645;51.448;6.260;2022-09-29T06:21:44;40.83;;;15.63;;
19024;SDS011;9645;51.448;6.260;2022-09-29T06:24:11;41.00;;;19.00;;
19024;SDS011;9645;51.448;6.260;2022-09-29T06:26:40;50.28;;;21.10;;
19024;SDS011;9645;51.448;6.260;2022-09-29T06:29:07;54.03;;;19.58;;
19024;SDS011;9645;51.448;6.260;2022-09-29T06:31:33;31.77;;;15.15;;
19024;SDS011;9645;51.448;6.260;2022-09-29T06:34:01;25.75;;;13.35;;
19024;SDS011;9645;51.448;6.260;2022-09-29T06:36:30;25.13;;;11.27;;
19024;SDS011;9645;51.448;6.260;2022-09-29T06:39:17;20.42;;;11.30;;
19024;SDS011;9645;51.448;6.260;2022-09-29T06:41:45;17.85;;;9.95;;
19024;SDS011;9645;51.448;6.260;2022-09-29T06:44:17;22.23;;;10.50;;
19024;SDS011;9645;51.448;6.260;2022-09-29T06:46:45;26.77;;;9.82;;
19024;SDS011;9645;51.448;6.260;2022-09-29T06:49:12;17.80;;;9.45;;
19024;SDS011;9645;51.448;6.260;2022-09-29T06:51:40;17.17;;;10.07;;
19024;SDS011;9645;51.448;6.260;2022-09-29T06:54:08;17.02;;;10.02;;
19024;SDS011;9645;51.448;6.260;2022-09-29T06:56:35;18.90;;;10.25;;
19024;SDS011;9645;51.448;6.260;2022-09-29T06:59:04;17.77;;;9.35;;
19024;SDS011;9645;51.448;6.260;2022-09-29T07:01:31;20.98;;;10.13;;
19024;SDS011;9645;51.448;6.260;2022-09-29T07:03:58;20.40;;;9.85;;
19024;SDS011;9645;51.448;6.260;2022-09-29T07:06:26;16.23;;;9.73;;
19024;SDS011;9645;51.448;6.260;2022-09-29T07:08:54;21.25;;;9.90;;
19024;SDS011;9645;51.448;6.260;2022-09-29T07:11:21;29.05;;;11.60;;
19024;SDS011;9645;51.448;6.260;2022-09-29T07:13:49;24.83;;;11.13;;
19024;SDS011;9645;51.448;6.260;2022-09-29T07:16:17;21.73;;;10.40;;
19024;SDS011;9645;51.448;6.260;2022-09-29T07:18:44;19.13;;;10.60;;
19024;SDS011;9645;51.448;6.260;2022-09-29T07:21:13;24.30;;;10.68;;
19024;SDS011;9645;51.448;6.260;2022-09-29T07:23:42;17.10;;;11.13;;
19024;SDS011;9645;51.448;6.260;2022-09-29T07:26:10;16.50;;;9.13;;
19024;SDS011;9645;51.448;6.260;2022-09-29T07:28:37;18.20;;;8.00;;
19024;SDS011;9645;51.448;6.260;2022-09-29T07:31:05;16.20;;;7.47;;
19024;SDS011;9645;51.448;6.260;2022-09-29T07:33:34;12.83;;;8.50;;
19024;SDS011;9645;51.448;6.260;2022-09-29T07:36:01;13.50;;;7.67;;
19024;SDS011;9645;51.448;6.260;2022-09-29T07:38:29;12.73;;;7.20;;
19024;SDS011;9645;51.448;6.260;2022-09-29T07:40:58;13.97;;;8.90;;
19024;SDS011;9645;51.448;6.260;2022-09-29T07:43:26;9.83;;;7.50;;
19024;SDS011;9645;51.448;6.260;2022-09-29T07:45:53;11.80;;;8.17;;
19024;SDS011;9645;51.448;6.260;2022-09-29T07:48:20;14.73;;;8.03;;
19024;SDS011;9645;51.448;6.260;2022-09-29T07:50:49;13.93;;;8.53;;
19024;SDS011;9645;51.448;6.260;2022-09-29T07:53:16;12.20;;;8.30;;
19024;SDS011;9645;51.448;6.260;2022-09-29T07:55:43;13.90;;;8.33;;
19024;SDS011;9645;51.448;6.260;2022-09-29T07:58:10;19.73;;;7.20;;
19024;SDS011;9645;51.448;6.260;2022-09-29T08:00:37;12.93;;;7.97;;
19024;SDS011;9645;51.448;6.260;2022-09-29T08:03:05;12.80;;;8.00;;
19024;SDS011;9645;51.448;6.260;2022-09-29T08:05:33;17.70;;;9.00;;
19024;SDS011;9645;51.448;6.260;2022-09-29T08:08:02;9.27;;;7.00;;
19024;SDS011;9645;51.448;6.260;2022-09-29T08:10:30;8.07;;;6.60;;
19024;SDS011;9645;51.448;6.260;2022-09-29T08:12:58;9.70;;;7.27;;
19024;SDS011;9645;51.448;6.260;2022-09-29T08:15:25;13.70;;;7.23;;
19024;SDS011;9645;51.448;6.260;2022-09-29T08:17:52;11.23;;;6.83;;
19024;SDS011;9645;51.448;6.260;2022-09-29T08:20:20;13.10;;;7.53;;
19024;SDS011;9645;51.448;6.260;2022-09-29T08:22:47;13.10;;;7.23;;
19024;SDS011;9645;51.448;6.260;2022-09-29T08:25:16;14.23;;;6.53;;
19024;SDS011;9645;51.448;6.260;2022-09-29T08:27:43;7.33;;;6.03;;
19024;SDS011;9645;51.448;6.260;2022-09-29T08:30:11;9.53;;;6.10;;
19024;SDS011;9645;51.448;6.260;2022-09-29T08:32:38;11.07;;;6.97;;
19024;SDS011;9645;51.448;6.260;2022-09-29T08:35:05;10.17;;;7.50;;
19024;SDS011;9645;51.448;6.260;2022-09-29T08:37:32;8.20;;;7.07;;
19024;SDS011;9645;51.448;6.260;2022-09-29T08:40:00;9.83;;;6.90;;
19024;SDS011;9645;51.448;6.260;2022-09-29T08:42:34;6.90;;;6.20;;
19024;SDS011;9645;51.448;6.260;2022-09-29T08:45:10;8.63;;;6.60;;
19024;SDS011;9645;51.448;6.260;2022-09-29T08:47:44;10.33;;;7.33;;
19024;SDS011;9645;51.448;6.260;2022-09-29T08:50:16;7.30;;;6.53;;
19024;SDS011;9645;51.448;6.260;2022-09-29T08:52:52;8.30;;;6.80;;
19024;SDS011;9645;51.448;6.260;2022-09-29T08:55:23;7.77;;;6.37;;
19024;SDS011;9645;51.448;6.260;2022-09-29T08:57:56;9.60;;;7.10;;
19024;SDS011;9645;51.448;6.260;2022-09-29T09:00:27;8.70;;;6.50;;
19024;SDS011;9645;51.448;6.260;2022-09-29T09:06:15;8.40;;;6.93;;
19024;SDS011;9645;51.448;6.260;2022-09-29T09:09:00;8.90;;;7.10;;
19024;SDS011;9645;51.448;6.260;2022-09-29T09:11:42;18.27;;;6.93;;
19024;SDS011;9645;51.448;6.260;2022-09-29T09:14:22;7.80;;;6.13;;
19024;SDS011;9645;51.448;6.260;2022-09-29T09:17:12;10.63;;;6.17;;
19024;SDS011;9645;51.448;6.260;2022-09-29T09:19:59;13.67;;;6.97;;
19024;SDS011;9645;51.448;6.260;2022-09-29T09:22:46;7.17;;;6.37;;
19024;SDS011;9645;51.448;6.260;2022-09-29T09:25:23;6.83;;;6.13;;
19024;SDS011;9645;51.448;6.260;2022-09-29T09:28:04;8.37;;;6.00;;
19024;SDS011;9645;51.448;6.260;2022-09-29T09:30:40;7.63;;;6.10;;
19024;SDS011;9645;51.448;6.260;2022-09-29T09:33:12;5.67;;;5.07;;
19024;SDS011;9645;51.448;6.260;2022-09-29T09:35:45;10.10;;;6.77;;
19024;SDS011;9645;51.448;6.260;2022-09-29T09:38:15;10.83;;;7.20;;
19024;SDS011;9645;51.448;6.260;2022-09-29T09:40:46;10.07;;;6.07;;
19024;SDS011;9645;51.448;6.260;2022-09-29T09:43:17;6.77;;;5.83;;
19024;SDS011;9645;51.448;6.260;2022-09-29T09:45:51;5.03;;;4.63;;
19024;SDS011;9645;51.448;6.260;2022-09-29T09:48:25;7.37;;;5.60;;
19024;SDS011;9645;51.448;6.260;2022-09-29T09:50:56;10.23;;;5.90;;
19024;SDS011;9645;51.448;6.260;2022-09-29T09:53:26;11.17;;;7.10;;
19024;SDS011;9645;51.448;6.260;2022-09-29T09:56:00;11.83;;;6.90;;
19024;SDS011;9645;51.448;6.260;2022-09-29T09:58:48;9.27;;;7.30;;
19024;SDS011;9645;51.448;6.260;2022-09-29T10:01:28;6.80;;;6.10;;
19024;SDS011;9645;51.448;6.260;2022-09-29T10:03:56;7.70;;;6.00;;
19024;SDS011;9645;51.448;6.260;2022-09-29T10:06:25;8.03;;;6.90;;
19024;SDS011;9645;51.448;6.260;2022-09-29T10:08:52;8.83;;;6.93;;
19024;SDS011;9645;51.448;6.260;2022-09-29T10:11:23;6.90;;;6.20;;
19024;SDS011;9645;51.448;6.260;2022-09-29T10:13:55;14.03;;;6.90;;
19024;SDS011;9645;51.448;6.260;2022-09-29T10:16:27;6.73;;;5.60;;
19024;SDS011;9645;51.448;6.260;2022-09-29T10:19:05;6.00;;;5.40;;
19024;SDS011;9645;51.448;6.260;2022-09-29T10:21:36;12.93;;;6.67;;
19024;SDS011;9645;51.448;6.260;2022-09-29T10:24:05;8.50;;;6.77;;
19024;SDS011;9645;51.448;6.260;2022-09-29T10:26:46;9.73;;;6.50;;
19024;SDS011;9645;51.448;6.260;2022-09-29T10:29:18;7.27;;;5.70;;
19024;SDS011;9645;51.448;6.260;2022-09-29T10:31:58;12.50;;;6.60;;
19024;SDS011;9645;51.448;6.260;2022-09-29T10:34:31;10.67;;;6.90;;
19024;SDS011;9645;51.448;6.260;2022-09-29T10:37:00;8.33;;;6.80;;
19024;SDS011;9645;51.448;6.260;2022-09-29T10:39:33;7.43;;;5.83;;
19024;SDS011;9645;51.448;6.260;2022-09-29T10:42:14;11.03;;;6.00;;
19024;SDS011;9645;51.448;6.260;2022-09-29T10:44:43;8.83;;;6.07;;
19024;SDS011;9645;51.448;6.260;2022-09-29T10:47:17;7.93;;;5.50;;
19024;SDS011;9645;51.448;6.260;2022-09-29T10:49:46;13.30;;;6.00;;
19024;SDS011;9645;51.448;6.260;2022-09-29T10:52:20;5.10;;;4.60;;
19024;SDS011;9645;51.448;6.260;2022-09-29T10:54:53;6.77;;;4.57;;
19024;SDS011;9645;51.448;6.260;2022-09-29T10:57:24;4.43;;;3.87;;
19024;SDS011;9645;51.448;6.260;2022-09-29T10:59:53;9.30;;;4.73;;
19024;SDS011;9645;51.448;6.260;2022-09-29T11:02:25;5.03;;;4.57;;
19024;SDS011;9645;51.448;6.260;2022-09-29T11:04:55;7.93;;;5.50;;
19024;SDS011;9645;51.448;6.260;2022-09-29T11:07:26;6.37;;;4.20;;
19024;SDS011;9645;51.448;6.260;2022-09-29T11:09:54;10.87;;;5.20;;
19024;SDS011;9645;51.448;6.260;2022-09-29T11:12:28;6.90;;;5.70;;
19024;SDS011;9645;51.448;6.260;2022-09-29T11:14:58;5.90;;;4.77;;
19024;SDS011;9645;51.448;6.260;2022-09-29T11:17:27;7.20;;;6.17;;
19024;SDS011;9645;51.448;6.260;2022-09-29T11:19:57;5.83;;;5.07;;
19024;SDS011;9645;51.448;6.260;2022-09-29T11:22:39;7.00;;;3.97;;
19024;SDS011;9645;51.448;6.260;2022-09-29T11:31:31;4.70;;;4.30;;
19024;SDS011;9645;51.448;6.260;2022-09-29T11:34:22;5.40;;;3.30;;
19024;SDS011;9645;51.448;6.260;2022-09-29T11:37:10;5.67;;;3.43;;
19024;SDS011;9645;51.448;6.260;2022-09-29T11:39:48;4.80;;;2.97;;
19024;SDS011;9645;51.448;6.260;2022-09-29T11:42:25;5.83;;;4.00;;
19024;SDS011;9645;51.448;6.260;2022-09-29T11:45:02;6.27;;;4.50;;
19024;SDS011;9645;51.448;6.260;2022-09-29T11:47:42;6.13;;;3.67;;
19024;SDS011;9645;51.448;6.260;2022-09-29T11:50:36;5.07;;;3.80;;
19024;SDS011;9645;51.448;6.260;2022-09-29T11:53:29;4.10;;;3.40;;
19024;SDS011;9645;51.448;6.260;2022-09-29T11:56:13;3.23;;;2.90;;
19024;SDS011;9645;51.448;6.260;2022-09-29T12:02:03;3.50;;;3.20;;
19024;SDS011;9645;51.448;6.260;2022-09-29T12:04:48;5.83;;;3.90;;
19024;SDS011;9645;51.448;6.260;2022-09-29T12:07:27;7.67;;;3.53;;
19024;SDS011;9645;51.448;6.260;2022-09-29T12:12:53;4.07;;;3.63;;
19024;SDS011;9645;51.448;6.260;2022-09-29T12:15:31;5.17;;;3.97;;
19024;SDS011;9645;51.448;6.260;2022-09-29T12:18:10;4.90;;;3.00;;
19024;SDS011;9645;51.448;6.260;2022-09-29T12:20:41;6.40;;;3.13;;
19024;SDS011;9645;51.448;6.260;2022-09-29T12:23:12;11.80;;;3.90;;
19024;SDS011;9645;51.448;6.260;2022-09-29T12:25:44;5.27;;;4.10;;
19024;SDS011;9645;51.448;6.260;2022-09-29T12:28:18;4.03;;;3.10;;
19024;SDS011;9645;51.448;6.260;2022-09-29T12:30:51;3.90;;;3.50;;
19024;SDS011;9645;51.448;6.260;2022-09-29T12:33:24;7.60;;;3.60;;
19024;SDS011;9645;51.448;6.260;2022-09-29T12:35:58;5.10;;;3.70;;
19024;SDS011;9645;51.448;6.260;2022-09-29T12:38:54;4.00;;;3.60;;
19024;SDS011;9645;51.448;6.260;2022-09-29T12:41:26;7.47;;;4.17;;
19024;SDS011;9645;51.448;6.260;2022-09-29T12:43:59;8.17;;;4.37;;
19024;SDS011;9645;51.448;6.260;2022-09-29T12:46:37;8.77;;;3.90;;
19024;SDS011;9645;51.448;6.260;2022-09-29T12:49:12;4.30;;;3.60;;
19024;SDS011;9645;51.448;6.260;2022-09-29T12:51:46;5.63;;;3.77;;
19024;SDS011;9645;51.448;6.260;2022-09-29T12:54:17;6.50;;;4.00;;
19024;SDS011;9645;51.448;6.260;2022-09-29T12:56:48;5.10;;;2.80;;
19024;SDS011;9645;51.448;6.260;2022-09-29T12:59:24;4.60;;;3.50;;
19024;SDS011;9645;51.448;6.260;2022-09-29T13:01:58;5.67;;;3.47;;
19024;SDS011;9645;51.448;6.260;2022-09-29T13:07:28;4.80;;;3.10;;
19024;SDS011;9645;51.448;6.260;2022-09-29T13:10:40;6.17;;;2.73;;
19024;SDS011;9645;51.448;6.260;2022-09-29T13:16:24;2.87;;;2.00;;
19024;SDS011;9645;51.448;6.260;2022-09-29T13:19:10;9.33;;;2.70;;
19024;SDS011;9645;51.448;6.260;2022-09-29T13:21:59;7.17;;;2.80;;
19024;SDS011;9645;51.448;6.260;2022-09-29T13:24:43;6.37;;;3.10;;
19024;SDS011;9645;51.448;6.260;2022-09-29T13:27:22;3.80;;;3.37;;
19024;SDS011;9645;51.448;6.260;2022-09-29T13:29:55;5.30;;;2.83;;
19024;SDS011;9645;51.448;6.260;2022-09-29T13:32:23;9.47;;;4.00;;
19024;SDS011;9645;51.448;6.260;2022-09-29T13:34:52;4.93;;;3.10;;
19024;SDS011;9645;51.448;6.260;2022-09-29T13:37:22;4.00;;;3.13;;
19024;SDS011;9645;51.448;6.260;2022-09-29T13:39:52;5.23;;;3.30;;
19024;SDS011;9645;51.448;6.260;2022-09-29T13:54:21;14.33;;;5.60;;
19024;SDS011;9645;51.448;6.260;2022-09-29T13:56:51;7.37;;;4.30;;
19024;SDS011;9645;51.448;6.260;2022-09-29T13:59:27;5.10;;;3.93;;
19024;SDS011;9645;51.448;6.260;2022-09-29T14:01:55;8.47;;;4.10;;
19024;SDS011;9645;51.448;6.260;2022-09-29T14:04:39;16.77;;;4.30;;
19024;SDS011;9645;51.448;6.260;2022-09-29T14:07:11;7.53;;;4.00;;
19024;SDS011;9645;51.448;6.260;2022-09-29T14:09:39;6.00;;;4.23;;
19024;SDS011;9645;51.448;6.260;2022-09-29T14:12:15;7.57;;;4.33;;
19024;SDS011;9645;51.448;6.260;2022-09-29T14:14:49;6.63;;;4.40;;
19024;SDS011;9645;51.448;6.260;2022-09-29T14:17:20;6.80;;;4.30;;
19024;SDS011;9645;51.448;6.260;2022-09-29T14:19:53;6.80;;;4.63;;
19024;SDS011;9645;51.448;6.260;2022-09-29T14:25:23;8.50;;;4.60;;
19024;SDS011;9645;51.448;6.260;2022-09-29T14:28:08;8.57;;;5.00;;
19024;SDS011;9645;51.448;6.260;2022-09-29T14:30:47;6.70;;;4.60;;
19024;SDS011;9645;51.448;6.260;2022-09-29T14:33:17;8.63;;;4.50;;
19024;SDS011;9645;51.448;6.260;2022-09-29T14:35:50;6.33;;;3.50;;
19024;SDS011;9645;51.448;6.260;2022-09-29T14:38:27;7.67;;;3.80;;
19024;SDS011;9645;51.448;6.260;2022-09-29T14:40:57;8.60;;;4.40;;
19024;SDS011;9645;51.448;6.260;2022-09-29T14:43:35;10.20;;;3.90;;
19024;SDS011;9645;51.448;6.260;2022-09-29T14:49:26;7.70;;;4.40;;
19024;SDS011;9645;51.448;6.260;2022-09-29T14:52:26;7.20;;;4.60;;
19024;SDS011;9645;51.448;6.260;2022-09-29T14:55:05;8.90;;;5.70;;
19024;SDS011;9645;51.448;6.260;2022-09-29T14:57:53;14.30;;;5.60;;
19024;SDS011;9645;51.448;6.260;2022-09-29T15:00:39;8.67;;;4.30;;
19024;SDS011;9645;51.448;6.260;2022-09-29T15:03:21;9.30;;;4.00;;
19024;SDS011;9645;51.448;6.260;2022-09-29T15:06:02;9.20;;;4.53;;
19024;SDS011;9645;51.448;6.260;2022-09-29T15:08:31;5.40;;;3.33;;
19024;SDS011;9645;51.448;6.260;2022-09-29T15:11:00;6.00;;;4.30;;
19024;SDS011;9645;51.448;6.260;2022-09-29T15:13:28;8.77;;;4.93;;
19024;SDS011;9645;51.448;6.260;2022-09-29T15:15:58;8.37;;;5.00;;
19024;SDS011;9645;51.448;6.260;2022-09-29T15:18:37;6.90;;;4.43;;
19024;SDS011;9645;51.448;6.260;2022-09-29T15:21:18;7.23;;;4.23;;
19024;SDS011;9645;51.448;6.260;2022-09-29T15:24:01;12.03;;;4.47;;
19024;SDS011;9645;51.448;6.260;2022-09-29T15:26:50;7.80;;;4.30;;
19024;SDS011;9645;51.448;6.260;2022-09-29T15:29:17;12.83;;;3.70;;
19024;SDS011;9645;51.448;6.260;2022-09-29T15:31:45;4.80;;;3.63;;
19024;SDS011;9645;51.448;6.260;2022-09-29T15:34:16;3.53;;;3.00;;
19024;SDS011;9645;51.448;6.260;2022-09-29T15:36:45;5.90;;;4.03;;
19024;SDS011;9645;51.448;6.260;2022-09-29T15:39:36;6.00;;;4.00;;
19024;SDS011;9645;51.448;6.260;2022-09-29T15:42:13;17.50;;;5.23;;
19024;SDS011;9645;51.448;6.260;2022-09-29T15:44:51;8.53;;;4.20;;
19024;SDS011;9645;51.448;6.260;2022-09-29T15:47:27;12.77;;;4.80;;
19024;SDS011;9645;51.448;6.260;2022-09-29T15:50:03;8.67;;;4.70;;
19024;SDS011;9645;51.448;6.260;2022-09-29T15:52:41;6.60;;;4.53;;
19024;SDS011;9645;51.448;6.260;2022-09-29T15:55:10;6.20;;;4.17;;
19024;SDS011;9645;51.448;6.260;2022-09-29T15:57:41;10.87;;;5.00;;
19024;SDS011;9645;51.448;6.260;2022-09-29T16:03:20;8.93;;;5.10;;
19024;SDS011;9645;51.448;6.260;2022-09-29T16:06:01;9.80;;;4.10;;
19024;SDS011;9645;51.448;6.260;2022-09-29T16:08:36;6.60;;;4.50;;